Dalton, GA

2:08 PM EST on March 02, 2015 (GMT -0500)
Downtown Dalton, GA | Change Station
CLOSE
Current Station
Personal Weather Station
Location: Dalton, GA
Elevation: 753 ft
Nearby Weather Stations

Elev 753 ft 34.76 °N, 84.96 °W | Updated 4 seconds ago

Overcast
Overcast
52.3 °F
Feels Like 52.3 °F
N
4.0
Wind Variable Wind from NNW
Gusts 14.0 mph

Today
High -- | Low -- °F
--% Chance of Precip.
Yesterday
High -- | Low -- °F
Precip. -- in
7:08 AM 6:36 PM
Waxing Gibbous, 92% visible
Pressure 30.31 in
Visibility 10.0 miles
Clouds Scattered Clouds 2500 ft
Dew Point 45 °F
Humidity 75%
Rainfall 0.04 in
Snow Depth Not available.
UV 5 out of 12
Pollen 1.60 out of 12
Air Quality Not available.
Flu Activity Not available.
METAR KDNN 021855Z AUTO 33013KT 10SM SCT025 11/07 A3031 RMK AO2

More Conditions Fewer Conditions

Pressure 30.31 in
Visibility 10.0 miles
Clouds Scattered Clouds 2500 ft
Dew Point 45 °F
Humidity 75%
Rainfall 0.04 in
Snow Depth Not available.
UV 5 out of 12
Pollen 1.60 out of 12
Air Quality Not available.
Flu Activity Not available.
METAR KDNN 021855Z AUTO 33013KT 10SM SCT025 11/07 A3031 RMK AO2

More Conditions Fewer Conditions

10-Day Weather Forecast

Almanac

Astronomy

Mar. 02, 2015 Rise Set
Actual Time
Civil Twilight
Nautical Twilight
Astronomical Twilight
Moon
Length of Visible Light
Length of Day
Tomorrow will be .
, % of the Moon is Illuminated

Today's Extremes

State Highs State Lows

Community

WunderPhotos

Upload Photos

1,801,913 photos uploaded!

WunderBlogs® & News

Nearby

Air Quality

  Air Quality AQ Index Pollutant
Not available.

Snow Depth

Station Depth Elevation

Earthquake Activity

City Distance Mag. Time & Date
Minimum magnitude displayed is 2.5.

Coastal Water Temperatures

Place Temperature

Nearby Weather Stations